Time;durP1;ratioP1;P1;durP2;ratioP2;P2;SDS_P1;SDS_P2;PMS_P1;PMS_P2;Temp;Humidity;BMP_temperature;BMP_pressure;BME280_temperature;BME280_humidity;BME280_pressure;Samples;Min_cycle;Max_cycle;Signal;HPM_P1;HPM_P2
2020/12/13 00:02:11;;;;;;;28.02;15.02;;;2.70;87.20;;;;;;5059515;28;20029;-64
2020/12/13 00:04:37;;;;;;;32.92;16.02;;;2.70;87.20;;;;;;5055786;28;20453;-64
2020/12/13 00:07:05;;;;;;;27.02;14.93;;;2.80;87.30;;;;;;5058134;28;20021;-64
2020/12/13 00:09:31;;;;;;;30.02;17.30;;;2.80;87.30;;;;;;5061066;28;20021;-64
2020/12/13 00:11:56;;;;;;;32.53;15.68;;;2.80;87.20;;;;;;5050202;28;20024;-64
2020/12/13 00:14:22;;;;;;;29.00;16.33;;;2.80;87.90;;;;;;5053852;28;20033;-64
2020/12/13 00:16:52;;;;;;;31.83;18.48;;;2.80;87.20;;;;;;5053789;28;20032;-64
2020/12/13 00:19:18;;;;;;;38.60;19.00;;;2.80;87.20;;;;;;5049410;28;20039;-64
2020/12/13 00:21:47;;;;;;;28.40;16.58;;;2.80;87.20;;;;;;5056818;28;20108;-64
2020/12/13 00:24:13;;;;;;;34.83;16.95;;;2.90;87.20;;;;;;5054243;28;20056;-64
2020/12/13 00:26:41;;;;;;;34.58;17.80;;;2.90;87.20;;;;;;5056182;28;20419;-64
2020/12/13 00:29:06;;;;;;;33.92;16.98;;;2.90;87.20;;;;;;5052878;28;20056;-64
2020/12/13 00:31:32;;;;;;;33.78;16.30;;;2.90;87.30;;;;;;5054486;28;20411;-64
2020/12/13 00:33:58;;;;;;;31.80;16.67;;;2.90;87.10;;;;;;5062034;28;20024;-64
2020/12/13 00:36:23;;;;;;;37.05;19.23;;;2.90;87.00;;;;;;5054206;28;20037;-64
2020/12/13 00:38:50;;;;;;;34.42;18.88;;;2.90;86.90;;;;;;5046729;28;20040;-64
2020/12/13 00:41:16;;;;;;;38.40;18.52;;;2.90;87.00;;;;;;5054903;28;20064;-64
2020/12/13 00:43:42;;;;;;;33.08;18.02;;;2.90;87.80;;;;;;5050528;28;20037;-64
2020/12/13 00:46:08;;;;;;;34.70;18.67;;;2.90;87.00;;;;;;5065681;28;20032;-64
2020/12/13 00:48:34;;;;;;;31.45;17.33;;;2.90;87.00;;;;;;5064692;28;20032;-64
2020/12/13 00:51:00;;;;;;;33.35;17.25;;;2.90;86.90;;;;;;5059714;28;20025;-64
2020/12/13 00:53:25;;;;;;;31.33;16.85;;;2.90;87.10;;;;;;5054276;28;20037;-64
2020/12/13 00:55:51;;;;;;;31.77;17.38;;;2.90;87.10;;;;;;5057718;28;20036;-64
2020/12/13 00:58:17;;;;;;;37.78;18.73;;;2.90;87.00;;;;;;5063894;28;20037;-64
2020/12/13 01:00:43;;;;;;;33.60;17.45;;;2.90;87.10;;;;;;5057561;28;20048;-64
2020/12/13 01:03:08;;;;;;;33.28;18.00;;;2.90;87.20;;;;;;5058012;28;20037;-64
2020/12/13 01:05:34;;;;;;;33.85;19.05;;;3.00;87.30;;;;;;5053530;28;20112;-64
2020/12/13 01:08:00;;;;;;;34.90;18.10;;;3.00;87.20;;;;;;5057072;28;20113;-64
2020/12/13 01:10:26;;;;;;;34.17;17.50;;;3.00;87.20;;;;;;5056173;28;20041;-64
2020/12/13 01:12:51;;;;;;;30.23;16.75;;;3.10;87.10;;;;;;5057277;28;20082;-64
2020/12/13 01:15:18;;;;;;;31.70;16.77;;;3.10;87.00;;;;;;5053173;28;20452;-64
2020/12/13 01:17:47;;;;;;;36.67;18.80;;;3.10;86.80;;;;;;5064845;28;20094;-64
2020/12/13 01:20:14;;;;;;;32.05;18.17;;;3.20;87.10;;;;;;5047310;28;20033;-64
2020/12/13 01:22:41;;;;;;;35.28;18.70;;;3.20;86.80;;;;;;5050170;28;20029;-64
2020/12/13 01:25:08;;;;;;;39.60;21.90;;;3.20;86.70;;;;;;5041563;28;20033;-64
2020/12/13 01:27:35;;;;;;;37.30;20.48;;;3.20;86.40;;;;;;5054450;28;20084;-64
2020/12/13 01:30:03;;;;;;;35.05;20.05;;;3.10;86.30;;;;;;5053556;28;20033;-64
2020/12/13 01:32:28;;;;;;;34.78;20.23;;;3.00;86.40;;;;;;5058114;28;20017;-64
2020/12/13 01:34:54;;;;;;;35.97;19.27;;;3.00;86.60;;;;;;5048486;28;20021;-64
2020/12/13 01:37:20;;;;;;;40.90;22.85;;;3.00;86.80;;;;;;5056721;28;20029;-64
2020/12/13 01:39:46;;;;;;;38.75;22.23;;;3.00;86.70;;;;;;5053721;28;20029;-64
2020/12/13 01:42:11;;;;;;;37.25;21.55;;;3.00;86.60;;;;;;5055684;28;20124;-64
2020/12/13 01:44:37;;;;;;;39.60;22.23;;;3.00;86.60;;;;;;5060070;28;20078;-64
2020/12/13 01:47:07;;;;;;;41.30;22.10;;;2.90;86.60;;;;;;5043373;28;20380;-64
2020/12/13 01:49:51;;;;;;;38.95;21.92;;;2.90;86.90;;;;;;5057989;28;20368;-64
2020/12/13 01:54:58;;;;;;;45.78;24.60;;;2.90;87.00;;;;;;5050644;28;20040;-64
2020/12/13 01:57:24;;;;;;;47.58;25.30;;;2.90;87.10;;;;;;5059312;28;20036;-64
2020/12/13 01:59:52;;;;;;;51.42;27.00;;;2.80;87.00;;;;;;5063753;28;20020;-64
2020/12/13 02:02:23;;;;;;;57.22;28.10;;;2.80;87.20;;;;;;5057857;28;20108;-64
2020/12/13 02:04:54;;;;;;;64.38;30.80;;;2.80;87.40;;;;;;5052150;28;20070;-64
2020/12/13 02:07:21;;;;;;;55.30;29.03;;;2.80;87.40;;;;;;5056983;28;20029;-64
2020/12/13 02:09:47;;;;;;;59.50;30.88;;;2.80;87.60;;;;;;5054786;28;20029;-64
2020/12/13 02:12:12;;;;;;;64.90;31.35;;;2.70;87.80;;;;;;5053113;28;20381;-63
2020/12/13 02:14:38;;;;;;;69.53;31.25;;;2.70;87.90;;;;;;5048291;28;20025;-64
2020/12/13 02:17:04;;;;;;;62.47;30.60;;;2.70;88.10;;;;;;5047450;28;20036;-63
2020/12/13 02:19:31;;;;;;;54.10;29.17;;;2.70;88.10;;;;;;5054656;28;20040;-64
2020/12/13 02:21:59;;;;;;;65.00;31.25;;;2.70;88.10;;;;;;5054936;28;20036;-64
2020/12/13 02:24:25;;;;;;;56.05;28.45;;;2.70;88.10;;;;;;5045868;28;20029;-64
2020/12/13 02:26:51;;;;;;;58.53;30.15;;;2.70;88.10;;;;;;5057651;28;20059;-64
2020/12/13 02:29:17;;;;;;;71.25;31.33;;;2.70;88.10;;;;;;5056800;28;20029;-64
2020/12/13 02:31:44;;;;;;;58.45;28.80;;;2.80;88.10;;;;;;5055667;28;20040;-64
2020/12/13 02:34:10;;;;;;;52.85;27.30;;;2.70;88.10;;;;;;5052952;28;20100;-64
2020/12/13 02:36:36;;;;;;;47.67;26.08;;;2.70;88.00;;;;;;5058898;28;20171;-64
2020/12/13 02:39:05;;;;;;;49.83;26.55;;;2.70;88.70;;;;;;5053385;28;20064;-64
2020/12/13 02:41:31;;;;;;;51.70;26.02;;;2.70;88.20;;;;;;5064657;28;20120;-64
2020/12/13 02:43:57;;;;;;;45.58;24.67;;;2.70;88.20;;;;;;5056087;28;20107;-64
2020/12/13 02:46:22;;;;;;;47.65;25.23;;;2.70;88.20;;;;;;5056617;28;20032;-64
2020/12/13 02:48:48;;;;;;;48.35;22.98;;;2.70;88.20;;;;;;5056228;28;20029;-63
2020/12/13 02:51:14;;;;;;;48.38;22.80;;;2.70;88.10;;;;;;5061823;28;20094;-64
2020/12/13 02:53:40;;;;;;;38.15;21.85;;;2.70;88.40;;;;;;5062664;28;20026;-64
2020/12/13 02:56:05;;;;;;;44.55;23.00;;;2.80;88.30;;;;;;5034946;28;20037;-63
2020/12/13 02:58:31;;;;;;;45.08;22.55;;;2.70;88.20;;;;;;5053489;28;20112;-64
2020/12/13 03:00:57;;;;;;;47.03;24.67;;;2.80;88.20;;;;;;5065014;28;20033;-64
2020/12/13 03:03:23;;;;;;;41.58;21.52;;;2.70;88.30;;;;;;5054156;28;20028;-64
2020/12/13 03:05:49;;;;;;;38.35;20.52;;;2.70;88.30;;;;;;5052734;28;20469;-64
2020/12/13 03:08:14;;;;;;;44.30;22.75;;;2.80;88.40;;;;;;5055839;28;20039;-63
2020/12/13 03:10:40;;;;;;;40.63;19.88;;;2.80;88.50;;;;;;5056471;28;20036;-64
2020/12/13 03:13:06;;;;;;;43.28;21.42;;;2.80;88.50;;;;;;5063898;28;20033;-63
2020/12/13 03:15:31;;;;;;;36.00;19.08;;;2.80;88.40;;;;;;5058078;28;20072;-63
2020/12/13 03:17:57;;;;;;;41.30;21.38;;;2.80;88.30;;;;;;5050944;28;20033;-63
2020/12/13 03:20:23;;;;;;;42.13;22.17;;;2.80;88.40;;;;;;5057330;28;20088;-63
2020/12/13 03:22:48;;;;;;;36.80;19.63;;;2.80;88.40;;;;;;5060269;28;20079;-64
2020/12/13 03:25:14;;;;;;;39.00;20.92;;;2.80;88.30;;;;;;5049674;28;20373;-64
2020/12/13 03:27:40;;;;;;;46.53;21.50;;;2.80;88.40;;;;;;5064689;28;20105;-63
2020/12/13 03:30:06;;;;;;;39.45;21.02;;;2.80;88.40;;;;;;5057714;28;20027;-64
2020/12/13 03:32:35;;;;;;;40.72;20.13;;;2.70;88.30;;;;;;5060501;28;20099;-63
2020/12/13 03:35:03;;;;;;;39.22;17.98;;;2.70;88.50;;;;;;5055746;28;20040;-63
2020/12/13 03:37:29;;;;;;;33.63;19.30;;;2.80;88.60;;;;;;5065424;28;20028;-63
2020/12/13 03:39:54;;;;;;;37.95;19.15;;;2.80;88.60;;;;;;5057667;28;20028;-63
2020/12/13 03:42:20;;;;;;;36.15;19.65;;;2.80;88.50;;;;;;5053842;28;20021;-63
2020/12/13 03:44:46;;;;;;;34.35;18.63;;;2.80;88.30;;;;;;5060230;28;20487;-63
2020/12/13 03:47:11;;;;;;;35.08;18.55;;;2.80;88.40;;;;;;5061685;28;20033;-63
2020/12/13 03:49:37;;;;;;;31.98;17.02;;;2.80;88.50;;;;;;5067007;28;20024;-64
2020/12/13 03:52:03;;;;;;;29.52;15.98;;;2.80;88.50;;;;;;5063877;28;20024;-63
2020/12/13 03:54:30;;;;;;;25.30;15.73;;;2.80;88.60;;;;;;5051908;28;20049;-63
2020/12/13 03:56:56;;;;;;;32.53;16.70;;;2.80;88.70;;;;;;5050543;28;20033;-63
2020/12/13 03:59:22;;;;;;;38.83;19.33;;;2.90;88.80;;;;;;5052621;28;20484;-63
2020/12/13 04:01:47;;;;;;;28.35;16.67;;;2.90;88.50;;;;;;5060726;28;20033;-63
2020/12/13 04:04:13;;;;;;;39.58;20.23;;;2.90;88.20;;;;;;5059851;28;20714;-63
2020/12/13 04:06:39;;;;;;;44.45;20.23;;;2.90;88.40;;;;;;5053681;28;20036;-63
2020/12/13 04:09:04;;;;;;;36.78;19.48;;;2.90;88.40;;;;;;5064607;28;20031;-63
2020/12/13 04:11:31;;;;;;;39.60;19.75;;;2.90;88.30;;;;;;5046594;28;20416;-63
2020/12/13 04:13:57;;;;;;;28.65;17.27;;;2.80;88.30;;;;;;5051685;28;20163;-63
2020/12/13 04:16:23;;;;;;;37.85;19.92;;;2.90;88.50;;;;;;5050510;28;20051;-63
2020/12/13 04:18:48;;;;;;;32.10;18.30;;;2.80;88.30;;;;;;5058096;28;20043;-63
2020/12/13 04:21:14;;;;;;;35.08;18.90;;;2.90;88.40;;;;;;5053475;28;20041;-63
2020/12/13 04:23:40;;;;;;;40.63;21.00;;;2.80;88.40;;;;;;5059276;28;20389;-63
2020/12/13 04:26:05;;;;;;;42.92;23.48;;;2.90;88.50;;;;;;5060377;28;20048;-63
2020/12/13 04:28:31;;;;;;;42.70;22.58;;;2.90;88.30;;;;;;5058389;28;20054;-63
2020/12/13 04:30:57;;;;;;;46.95;22.25;;;2.80;88.40;;;;;;5057500;28;20025;-63
2020/12/13 04:33:23;;;;;;;43.33;22.27;;;2.80;88.50;;;;;;5055197;28;20057;-63
2020/12/13 04:35:48;;;;;;;44.85;21.95;;;2.80;88.50;;;;;;5061428;28;20028;-63
2020/12/13 04:38:14;;;;;;;39.10;20.60;;;2.80;88.60;;;;;;5056765;28;20068;-63
2020/12/13 04:40:40;;;;;;;47.90;24.42;;;2.80;88.50;;;;;;5057905;28;20060;-63
2020/12/13 04:43:06;;;;;;;53.10;25.95;;;2.90;88.70;;;;;;5064032;28;20098;-63
2020/12/13 04:45:33;;;;;;;59.80;27.65;;;2.80;88.40;;;;;;5055646;28;20036;-63
2020/12/13 04:48:06;;;;;;;53.75;26.10;;;2.80;88.40;;;;;;5061629;28;20034;-63
2020/12/13 04:50:34;;;;;;;53.88;23.45;;;2.80;88.70;;;;;;5062780;28;20037;-63
2020/12/13 04:53:05;;;;;;;57.75;25.98;;;2.80;88.70;;;;;;5064173;28;20078;-63
2020/12/13 04:55:30;;;;;;;52.22;25.95;;;2.80;88.80;;;;;;5050015;28;20026;-63
2020/12/13 04:57:57;;;;;;;49.40;23.88;;;2.80;88.80;;;;;;5055664;28;20028;-63
2020/12/13 05:00:23;;;;;;;47.97;21.98;;;2.80;88.80;;;;;;5060961;28;20025;-63
2020/12/13 05:02:52;;;;;;;42.50;23.83;;;2.80;88.90;;;;;;5059545;28;20032;-63
2020/12/13 05:05:20;;;;;;;44.08;21.50;;;2.80;89.00;;;;;;5062033;28;20488;-63
2020/12/13 05:07:46;;;;;;;44.45;22.83;;;2.90;89.10;;;;;;5047508;28;20025;-63
2020/12/13 05:10:11;;;;;;;48.28;23.35;;;2.90;88.90;;;;;;5045387;28;20436;-63
2020/12/13 05:12:37;;;;;;;44.88;23.55;;;2.90;88.70;;;;;;5050837;28;20131;-63
2020/12/13 05:15:04;;;;;;;45.38;23.40;;;2.90;88.50;;;;;;5048777;28;20077;-63
2020/12/13 05:17:32;;;;;;;50.03;25.15;;;2.90;88.50;;;;;;5057881;28;20024;-63
2020/12/13 05:19:58;;;;;;;45.65;24.13;;;2.90;88.40;;;;;;5059355;28;20021;-63
2020/12/13 05:22:26;;;;;;;48.13;25.83;;;2.80;88.30;;;;;;5054043;28;20033;-63
2020/12/13 05:24:52;;;;;;;51.35;27.02;;;2.90;88.60;;;;;;5030540;28;20415;-63
2020/12/13 05:27:38;;;;;;;51.47;25.73;;;2.90;88.50;;;;;;5057275;28;20048;-63
2020/12/13 05:30:04;;;;;;;45.80;22.88;;;2.80;88.50;;;;;;5049685;28;20084;-63
2020/12/13 05:32:31;;;;;;;49.92;25.38;;;2.80;88.70;;;;;;5062074;28;20525;-63
2020/12/13 05:34:57;;;;;;;48.20;24.67;;;2.80;88.80;;;;;;5052042;28;20104;-63
2020/12/13 05:37:22;;;;;;;50.30;23.42;;;2.80;88.70;;;;;;5061316;28;20060;-63
2020/12/13 05:39:53;;;;;;;43.58;23.63;;;2.80;88.80;;;;;;5052206;28;20036;-63
2020/12/13 05:42:36;;;;;;;49.00;24.35;;;2.80;88.50;;;;;;5055131;28;20029;-63
2020/12/13 05:45:32;;;;;;;66.15;28.65;;;2.90;88.60;;;;;;5052066;28;20033;-63
2020/12/13 05:53:26;;;;;;;62.47;27.73;;;2.80;88.80;;;;;;5031010;28;20046;-63
2020/12/13 05:55:53;;;;;;;50.53;24.92;;;2.80;88.80;;;;;;5054922;28;20021;-63
2020/12/13 05:58:24;;;;;;;50.75;24.98;;;2.80;88.80;;;;;;5055833;28;20033;-63
2020/12/13 06:00:51;;;;;;;57.03;25.73;;;2.80;88.70;;;;;;5059711;28;20029;-63
2020/12/13 06:03:30;;;;;;;46.60;25.73;;;2.80;88.70;;;;;;5071254;28;20040;-63
2020/12/13 06:06:05;;;;;;;52.60;25.05;;;2.80;88.90;;;;;;5053284;28;20052;-63
2020/12/13 06:08:46;;;;;;;50.63;27.13;;;2.80;88.90;;;;;;5058783;28;20025;-63
2020/12/13 06:11:12;;;;;;;47.10;24.95;;;2.80;88.80;;;;;;5052640;28;20025;-63
2020/12/13 06:13:45;;;;;;;47.78;24.10;;;2.80;88.90;;;;;;5052750;28;20021;-63
2020/12/13 06:16:12;;;;;;;52.28;26.23;;;2.80;89.00;;;;;;5055384;28;20024;-63
2020/12/13 06:18:39;;;;;;;45.92;25.00;;;2.80;89.00;;;;;;5055554;28;20027;-63
2020/12/13 06:21:10;;;;;;;46.03;23.38;;;2.80;88.90;;;;;;5037875;28;20321;-63
2020/12/13 06:23:39;;;;;;;46.47;23.05;;;2.80;88.90;;;;;;5066151;28;20370;-63
2020/12/13 06:26:05;;;;;;;46.78;24.58;;;2.80;88.90;;;;;;5060218;28;20059;-63
2020/12/13 06:28:31;;;;;;;43.45;22.40;;;2.80;89.00;;;;;;5039011;28;20046;-63
2020/12/13 06:31:00;;;;;;;43.97;22.48;;;2.80;89.10;;;;;;5036202;28;20068;-63
2020/12/13 06:33:26;;;;;;;44.15;22.50;;;2.80;89.00;;;;;;5036816;28;20022;-63
2020/12/13 06:35:52;;;;;;;42.75;22.70;;;2.80;88.80;;;;;;5035541;28;20029;-63
2020/12/13 06:38:18;;;;;;;37.70;20.25;;;2.80;88.90;;;;;;5035532;28;20025;-63
2020/12/13 06:40:47;;;;;;;48.70;23.00;;;2.80;88.90;;;;;;5034318;28;20110;-63
2020/12/13 06:43:13;;;;;;;52.05;23.35;;;2.80;89.00;;;;;;5033627;28;20029;-63
2020/12/13 06:45:39;;;;;;;44.42;23.15;;;2.80;88.80;;;;;;5033386;28;20438;-62
2020/12/13 06:48:04;;;;;;;53.95;25.48;;;2.80;89.00;;;;;;5035362;28;20025;-63
2020/12/13 06:50:30;;;;;;;44.92;23.33;;;2.80;88.90;;;;;;5035704;28;20025;-63
2020/12/13 06:52:56;;;;;;;44.88;22.85;;;2.80;88.90;;;;;;5035201;28;20014;-63
2020/12/13 06:55:33;;;;;;;45.55;23.23;;;2.80;89.00;;;;;;5030656;28;20028;-63
2020/12/13 06:58:00;;;;;;;50.25;25.15;;;2.80;88.90;;;;;;5033736;28;20460;-63
2020/12/13 07:00:26;;;;;;;41.58;21.23;;;2.80;89.00;;;;;;5034467;28;20033;-63
2020/12/13 07:03:00;;;;;;;44.28;24.08;;;2.80;89.10;;;;;;5033527;28;20032;-63
2020/12/13 07:05:48;;;;;;;47.40;25.08;;;2.80;89.00;;;;;;5038208;28;20033;-63
2020/12/13 07:08:19;;;;;;;42.45;23.67;;;2.80;89.00;;;;;;5029198;28;20021;-63
2020/12/13 07:10:48;;;;;;;40.97;22.33;;;2.80;88.90;;;;;;5026931;28;20017;-63
2020/12/13 07:13:17;;;;;;;40.50;21.25;;;2.80;88.90;;;;;;5033114;28;20493;-63
2020/12/13 07:18:26;;;;;;;46.47;23.17;;;2.90;88.90;;;;;;5039453;28;20021;-63
2020/12/13 07:20:55;;;;;;;37.28;20.58;;;2.90;89.00;;;;;;5034441;28;20044;-63
2020/12/13 07:23:21;;;;;;;42.50;22.85;;;2.90;88.80;;;;;;5034358;28;20073;-63
2020/12/13 07:25:46;;;;;;;44.30;24.13;;;2.90;88.90;;;;;;5020965;28;20513;-63
2020/12/13 07:28:12;;;;;;;36.30;21.27;;;2.90;88.80;;;;;;5052412;28;20397;-63
2020/12/13 07:30:38;;;;;;;39.35;22.30;;;2.90;88.90;;;;;;5053058;28;20025;-63
2020/12/13 07:33:04;;;;;;;38.30;21.45;;;2.90;88.80;;;;;;5047373;28;20025;-63
2020/12/13 07:35:32;;;;;;;42.55;22.20;;;2.90;88.80;;;;;;5048290;28;20106;-63
2020/12/13 07:37:58;;;;;;;43.80;21.20;;;3.00;88.70;;;;;;5049606;28;20155;-63
2020/12/13 07:40:24;;;;;;;39.30;20.67;;;2.90;88.60;;;;;;5048058;28;20033;-63
2020/12/13 07:43:01;;;;;;;39.20;21.10;;;2.90;88.80;;;;;;5046361;28;20036;-63
2020/12/13 07:45:28;;;;;;;39.05;20.90;;;2.90;88.60;;;;;;5052440;28;20029;-63
2020/12/13 07:48:02;;;;;;;41.53;22.38;;;3.00;88.50;;;;;;5061474;28;20039;-63
2020/12/13 07:50:34;;;;;;;37.17;19.90;;;3.00;88.60;;;;;;5054567;28;20036;-63
2020/12/13 07:53:00;;;;;;;41.28;21.45;;;2.90;88.50;;;;;;5058827;28;20125;-63
2020/12/13 07:55:26;;;;;;;37.13;19.55;;;3.00;88.70;;;;;;5047212;28;20045;-63
2020/12/13 07:57:52;;;;;;;38.20;21.92;;;2.90;88.40;;;;;;5058348;28;20406;-63
2020/12/13 08:00:18;;;;;;;42.05;22.33;;;3.00;88.30;;;;;;5050275;28;20412;-63
2020/12/13 08:02:43;;;;;;;41.50;21.42;;;3.00;88.40;;;;;;5056867;28;20032;-63
2020/12/13 08:05:11;;;;;;;37.13;19.73;;;3.00;88.50;;;;;;5057285;28;20044;-63
2020/12/13 08:07:36;;;;;;;40.85;22.88;;;2.90;88.30;;;;;;5053985;28;20417;-63
2020/12/13 08:10:03;;;;;;;42.35;19.90;;;2.90;88.20;;;;;;5057876;28;20029;-63
2020/12/13 08:12:37;;;;;;;37.08;20.52;;;2.90;88.30;;;;;;5058945;28;20088;-63
2020/12/13 08:15:04;;;;;;;35.78;20.20;;;2.90;88.40;;;;;;5050284;28;20028;-63
2020/12/13 08:17:29;;;;;;;36.33;20.52;;;2.90;88.10;;;;;;5051588;28;20036;-63
2020/12/13 08:20:03;;;;;;;35.00;20.60;;;2.90;88.20;;;;;;5057496;28;20028;-63
2020/12/13 08:22:34;;;;;;;38.13;20.48;;;2.80;88.20;;;;;;5053343;28;20017;-63
2020/12/13 08:25:04;;;;;;;31.50;17.65;;;2.80;88.40;;;;;;5052642;28;20028;-63
2020/12/13 08:27:34;;;;;;;33.77;19.03;;;2.90;88.50;;;;;;5055790;28;20036;-63
2020/12/13 08:30:01;;;;;;;32.78;17.80;;;2.90;88.70;;;;;;5054633;28;20116;-63
2020/12/13 08:32:32;;;;;;;37.13;19.15;;;2.90;88.50;;;;;;5052124;28;20120;-63
2020/12/13 08:35:28;;;;;;;33.30;17.17;;;2.90;88.50;;;;;;5045807;28;20059;-63
2020/12/13 08:37:58;;;;;;;31.20;17.55;;;2.90;88.60;;;;;;5031012;28;20025;-63
2020/12/13 08:40:43;;;;;;;36.90;19.05;;;3.00;89.00;;;;;;5047460;28;20505;-63
2020/12/13 08:43:17;;;;;;;40.25;20.52;;;3.10;88.70;;;;;;5050230;28;20025;-63
2020/12/13 08:45:43;;;;;;;36.60;20.02;;;3.10;89.00;;;;;;5057327;28;20075;-63
2020/12/13 08:48:09;;;;;;;34.60;20.05;;;3.10;88.30;;;;;;5049212;28;20033;-63
2020/12/13 08:50:41;;;;;;;40.47;22.23;;;3.10;88.10;;;;;;5045966;28;20021;-63
2020/12/13 08:53:22;;;;;;;;;;;3.00;87.90;;;;;;5052354;28;20021;-63
2020/12/13 08:56:07;;;;;;;36.22;18.48;;;3.00;87.70;;;;;;5053705;28;19966;-63
2020/12/13 08:59:06;;;;;;;33.50;19.80;;;3.00;87.80;;;;;;5059495;28;20022;-63
2020/12/13 09:01:36;;;;;;;30.17;17.23;;;2.90;87.80;;;;;;5017112;28;20408;-63
2020/12/13 09:04:17;;;;;;;30.13;17.50;;;2.90;87.90;;;;;;5058307;28;20125;-63
2020/12/13 09:06:55;;;;;;;27.50;16.53;;;2.90;87.70;;;;;;5052922;28;20473;-63
2020/12/13 09:09:21;;;;;;;28.83;17.27;;;2.90;87.80;;;;;;5048098;28;20057;-63
2020/12/13 09:11:47;;;;;;;28.73;17.58;;;2.90;88.10;;;;;;5051421;28;20017;-63
2020/12/13 09:14:25;;;;;;;27.27;14.88;;;2.90;88.00;;;;;;5052348;28;20027;-63
2020/12/13 09:16:51;;;;;;;25.15;13.98;;;2.90;88.10;;;;;;5048203;28;20107;-63
2020/12/13 09:19:17;;;;;;;25.27;14.93;;;2.90;88.10;;;;;;5045755;28;20112;-63
2020/12/13 09:21:54;;;;;;;29.45;15.65;;;2.90;88.10;;;;;;5056001;28;20025;-63
2020/12/13 09:24:22;;;;;;;27.20;16.40;;;2.90;88.00;;;;;;5049335;28;20025;-63
2020/12/13 09:27:00;;;;;;;21.70;14.00;;;2.90;87.80;;;;;;5059772;28;20194;-63
2020/12/13 09:29:26;;;;;;;23.52;14.77;;;2.90;87.70;;;;;;5054035;28;20063;-63
2020/12/13 09:31:52;;;;;;;21.75;13.20;;;2.90;87.90;;;;;;5063573;28;20033;-63
2020/12/13 09:34:17;;;;;;;21.58;14.63;;;2.90;87.90;;;;;;5058027;28;20044;-63
2020/12/13 09:36:43;;;;;;;23.23;14.68;;;2.90;88.00;;;;;;5055823;28;20082;-63
2020/12/13 09:39:10;;;;;;;24.52;14.57;;;2.90;88.10;;;;;;5059020;28;20021;-63
2020/12/13 09:41:35;;;;;;;26.25;15.55;;;2.90;88.10;;;;;;5058607;28;20035;-63
2020/12/13 09:44:01;;;;;;;23.25;14.00;;;2.90;87.90;;;;;;5055122;28;20388;-63
2020/12/13 09:46:27;;;;;;;23.67;15.00;;;2.90;88.70;;;;;;5062171;28;20029;-63
2020/12/13 09:48:53;;;;;;;29.23;14.82;;;2.90;88.10;;;;;;5069033;28;20036;-63
2020/12/13 09:51:19;;;;;;;23.50;15.15;;;2.90;88.20;;;;;;5049130;28;20380;-63
2020/12/13 09:53:45;;;;;;;26.00;14.50;;;2.90;88.00;;;;;;5041716;28;20552;-63
2020/12/13 09:56:16;;;;;;;26.67;15.35;;;3.00;87.80;;;;;;5051571;28;20493;-63
2020/12/13 09:58:42;;;;;;;23.80;14.30;;;3.00;87.80;;;;;;5059632;28;20032;-63
2020/12/13 10:01:10;;;;;;;22.52;15.85;;;2.90;88.20;;;;;;5060173;28;20021;-63
2020/12/13 10:03:37;;;;;;;26.85;16.13;;;2.90;87.60;;;;;;5053937;28;20472;-63
2020/12/13 10:06:18;;;;;;;26.38;15.88;;;2.90;87.70;;;;;;5054019;28;20029;-63
2020/12/13 10:11:30;;;;;;;28.77;16.55;;;2.90;87.60;;;;;;5043616;28;20269;-63
2020/12/13 10:13:56;;;;;;;21.67;14.77;;;2.80;87.70;;;;;;5055665;28;20075;-63
2020/12/13 10:16:22;;;;;;;26.75;16.83;;;2.90;87.80;;;;;;5041753;28;20112;-63
2020/12/13 10:18:48;;;;;;;27.73;16.10;;;2.90;87.80;;;;;;5059412;28;20112;-63
2020/12/13 10:21:23;;;;;;;25.10;15.82;;;2.90;87.70;;;;;;5065921;28;20127;-63
2020/12/13 10:23:48;;;;;;;29.90;18.25;;;2.80;87.70;;;;;;5059784;28;20029;-63
2020/12/13 10:26:14;;;;;;;26.35;16.42;;;2.80;87.80;;;;;;5053085;28;20040;-63
2020/12/13 10:28:40;;;;;;;25.30;15.40;;;2.90;87.60;;;;;;5051476;28;20509;-63
2020/12/13 10:31:10;;;;;;;25.98;15.15;;;2.80;87.70;;;;;;5048209;28;20133;-63
2020/12/13 10:33:39;;;;;;;28.73;16.98;;;2.80;87.90;;;;;;5045288;28;20090;-63
2020/12/13 10:36:06;;;;;;;24.10;15.93;;;2.80;87.90;;;;;;5053110;28;20115;-63
2020/12/13 10:38:32;;;;;;;29.45;16.27;;;2.90;88.00;;;;;;5057561;28;20082;-63
2020/12/13 10:40:58;;;;;;;32.08;18.88;;;2.90;87.80;;;;;;5052498;28;20435;-63
2020/12/13 10:43:24;;;;;;;27.80;17.00;;;2.90;87.70;;;;;;5055183;28;20032;-63
2020/12/13 10:45:49;;;;;;;26.92;16.33;;;2.90;87.80;;;;;;5048982;28;20047;-63
2020/12/13 10:48:15;;;;;;;27.02;15.93;;;2.90;88.00;;;;;;5063808;28;20036;-63
2020/12/13 10:50:42;;;;;;;28.02;16.92;;;2.90;87.90;;;;;;5052285;28;20048;-63
2020/12/13 10:53:08;;;;;;;28.52;17.92;;;2.90;87.70;;;;;;5044548;28;20038;-62
2020/12/13 10:55:34;;;;;;;29.10;17.63;;;2.90;87.80;;;;;;5050042;28;20716;-63
2020/12/13 10:57:59;;;;;;;33.30;17.50;;;2.90;87.70;;;;;;5062848;28;20024;-63
2020/12/13 11:00:26;;;;;;;28.38;18.38;;;2.90;87.50;;;;;;5051001;28;20499;-63
2020/12/13 11:02:53;;;;;;;26.15;16.20;;;2.80;87.60;;;;;;5044022;28;20029;-63
2020/12/13 11:05:19;;;;;;;27.65;16.85;;;2.80;87.70;;;;;;5050112;28;20028;-63
2020/12/13 11:07:44;;;;;;;29.83;19.40;;;2.80;87.90;;;;;;5046847;28;20439;-62
2020/12/13 11:10:10;;;;;;;29.35;17.45;;;2.80;87.90;;;;;;5041212;28;20025;-63
2020/12/13 11:12:36;;;;;;;29.77;17.88;;;2.80;87.70;;;;;;5037863;28;20100;-62
2020/12/13 11:15:03;;;;;;;30.67;18.05;;;2.80;87.70;;;;;;5043525;28;20080;-62
2020/12/13 11:17:29;;;;;;;28.75;19.35;;;2.80;87.60;;;;;;5047399;28;20497;-62
2020/12/13 11:19:55;;;;;;;25.88;16.95;;;2.70;87.60;;;;;;5048825;28;20048;-62
2020/12/13 11:22:20;;;;;;;32.05;16.10;;;2.80;88.50;;;;;;5048777;28;20110;-62
2020/12/13 11:24:46;;;;;;;28.52;15.82;;;2.80;87.90;;;;;;5054629;28;20064;-62
2020/12/13 11:27:12;;;;;;;25.00;15.73;;;2.70;88.70;;;;;;5021536;28;914364;-62
2020/12/13 11:29:37;;;;;;;27.75;17.83;;;2.80;88.10;;;;;;5050827;28;20037;-62
2020/12/13 11:32:05;;;;;;;30.27;18.13;;;2.80;87.80;;;;;;5047155;28;20048;-62
2020/12/13 11:34:30;;;;;;;27.98;17.30;;;2.80;87.60;;;;;;5043300;28;20037;-62
2020/12/13 11:36:56;;;;;;;33.05;18.25;;;2.80;87.70;;;;;;5038329;28;20477;-62
2020/12/13 11:39:22;;;;;;;31.88;19.67;;;2.80;87.70;;;;;;5042152;28;20035;-63
2020/12/13 11:41:48;;;;;;;27.67;16.85;;;2.70;87.80;;;;;;5043564;28;20037;-62
2020/12/13 11:44:13;;;;;;;27.05;17.58;;;2.70;87.80;;;;;;5047323;28;20033;-62
2020/12/13 11:46:39;;;;;;;33.17;17.08;;;2.70;88.00;;;;;;5045749;28;20033;-60
2020/12/13 11:49:05;;;;;;;24.73;15.60;;;2.60;87.90;;;;;;5043513;28;20051;-65
2020/12/13 11:51:31;;;;;;;28.73;15.27;;;2.60;87.90;;;;;;5042219;28;20021;-64
2020/12/13 11:53:57;;;;;;;24.42;15.10;;;2.60;88.90;;;;;;5038935;28;20087;-65
2020/12/13 11:56:23;;;;;;;25.27;15.05;;;2.70;88.40;;;;;;5045638;28;20036;-65
2020/12/13 11:58:49;;;;;;;26.90;15.20;;;2.70;88.30;;;;;;5039206;28;20470;-65
2020/12/13 12:01:19;;;;;;;25.42;15.88;;;2.70;88.20;;;;;;5039244;28;20037;-64
2020/12/13 12:03:45;;;;;;;27.13;16.75;;;2.60;88.00;;;;;;5043952;28;20034;-64
2020/12/13 12:06:14;;;;;;;27.80;17.33;;;2.60;88.00;;;;;;5044178;28;20101;-64
2020/12/13 12:08:42;;;;;;;27.27;15.80;;;2.50;88.10;;;;;;5041003;28;20058;-64
2020/12/13 12:11:08;;;;;;;25.63;15.43;;;2.50;88.30;;;;;;5041348;28;20021;-64
2020/12/13 12:13:34;;;;;;;22.95;15.02;;;2.50;88.50;;;;;;5043590;28;20020;-64
2020/12/13 12:16:00;;;;;;;27.95;15.90;;;2.50;88.60;;;;;;5049297;28;20108;-64
2020/12/13 12:18:26;;;;;;;27.05;15.80;;;2.60;88.90;;;;;;5041451;28;20025;-64
2020/12/13 12:20:53;;;;;;;30.10;16.85;;;2.50;88.70;;;;;;5052506;28;20466;-65
2020/12/13 12:23:19;;;;;;;26.88;15.32;;;2.50;88.60;;;;;;5044853;28;20054;-65
2020/12/13 12:25:54;;;;;;;25.05;15.70;;;2.60;88.60;;;;;;5039563;28;20500;-64
2020/12/13 12:28:19;;;;;;;22.48;14.27;;;2.60;88.70;;;;;;5043087;28;20044;-65
2020/12/13 12:30:45;;;;;;;25.38;16.40;;;2.50;88.80;;;;;;5035482;28;20381;-65
2020/12/13 12:33:11;;;;;;;28.55;14.52;;;2.60;88.80;;;;;;5039230;28;20536;-65
2020/12/13 12:35:37;;;;;;;24.67;14.10;;;2.60;88.80;;;;;;5042074;28;20104;-64
2020/12/13 12:38:03;;;;;;;21.55;13.82;;;2.60;88.70;;;;;;5046802;28;20029;-64
2020/12/13 12:40:28;;;;;;;19.67;13.20;;;2.60;88.70;;;;;;5047148;28;20067;-64
2020/12/13 12:42:54;;;;;;;21.95;14.45;;;2.60;88.90;;;;;;5025361;28;20528;-64
2020/12/13 12:45:20;;;;;;;21.95;13.75;;;2.70;89.10;;;;;;5043015;28;20106;-65
2020/12/13 12:47:46;;;;;;;20.05;12.32;;;2.70;88.90;;;;;;5045195;28;20477;-64
2020/12/13 12:50:11;;;;;;;21.60;12.65;;;2.70;88.60;;;;;;5045640;28;20025;-64
2020/12/13 12:52:37;;;;;;;22.15;13.65;;;2.80;88.60;;;;;;5038885;28;20079;-64
2020/12/13 12:55:03;;;;;;;19.48;12.93;;;2.80;88.60;;;;;;5042399;28;20104;-65